TVS459F LKMT-EPKT
Flight info
| Callsign | TVS459F |
|---|---|
| Flight time | N/A |
| Altitude | 11000 |
| Route | BAVOK |
| Aircraft | B738/M-SDFGHIJ1LORVWXYZ/LB1 |
Departure
| Time | 2026-04-26 21:09 |
|---|---|
| Airport | Leoš Janáček Airport Ostrava (LKMT) |
Arrival
| Time | N/A |
|---|---|
| Airport | Katowice Wojciech Korfanty International Airport (EPKT) |
| Time | Latitude | Longitude | Altitude | Speed | Heading |
|---|---|---|---|---|---|
| 2026-04-26 20:48 | 49.69588 | 18.12012 | 830 ft | 0 kts | 174° |
| 2026-04-26 21:04 | 49.69581 | 18.12008 | 830 ft | 3 kts | 205° |
| 2026-04-26 21:04 | 49.69581 | 18.11962 | 830 ft | 6 kts | 309° |
| 2026-04-26 21:05 | 49.69595 | 18.11895 | 825 ft | 7 kts | 259° |
| 2026-04-26 21:05 | 49.69593 | 18.11881 | 827 ft | 8 kts | 258° |
| 2026-04-26 21:05 | 49.69596 | 18.11812 | 829 ft | 8 kts | 290° |
| 2026-04-26 21:05 | 49.69586 | 18.11728 | 826 ft | 9 kts | 228° |
| 2026-04-26 21:06 | 49.69543 | 18.11661 | 829 ft | 9 kts | 226° |
| 2026-04-26 21:06 | 49.69500 | 18.11590 | 829 ft | 11 kts | 226° |
| 2026-04-26 21:06 | 49.69434 | 18.11484 | 829 ft | 13 kts | 226° |
| 2026-04-26 21:06 | 49.69409 | 18.11416 | 826 ft | 5 kts | 280° |
| 2026-04-26 21:07 | 49.69430 | 18.11367 | 825 ft | 6 kts | 308° |
| 2026-04-26 21:07 | 49.69469 | 18.11305 | 829 ft | 11 kts | 317° |
| 2026-04-26 21:07 | 49.69541 | 18.11201 | 828 ft | 17 kts | 316° |
| 2026-04-26 21:07 | 49.69595 | 18.11119 | 827 ft | 4 kts | 316° |
| 2026-04-26 21:08 | 49.69621 | 18.11103 | 827 ft | 5 kts | 6° |
| 2026-04-26 21:08 | 49.69654 | 18.11141 | 830 ft | 7 kts | 45° |
| 2026-04-26 21:08 | 49.69667 | 18.11161 | 830 ft | 3 kts | 46° |
| 2026-04-26 21:08 | 49.69744 | 18.11282 | 832 ft | 51 kts | 46° |
| 2026-04-26 21:09 | 49.70213 | 18.12041 | 830 ft | 137 kts | 46° |
| 2026-04-26 21:09 | 49.70906 | 18.13170 | 1501 ft | 150 kts | 45° |
| 2026-04-26 21:09 | 49.71645 | 18.14332 | 2347 ft | 159 kts | 45° |
| 2026-04-26 21:09 | 49.72181 | 18.15188 | 2620 ft | 184 kts | 45° |
| 2026-04-26 21:10 | 49.72687 | 18.16003 | 2820 ft | 203 kts | 45° |
| 2026-04-26 21:10 | 49.73736 | 18.17699 | 3146 ft | 230 kts | 46° |
| 2026-04-26 21:10 | 49.74511 | 18.18957 | 3361 ft | 247 kts | 46° |
| 2026-04-26 21:10 | 49.74685 | 18.19240 | 3454 ft | 249 kts | 46° |
| 2026-04-26 21:11 | 49.75470 | 18.20518 | 3974 ft | 256 kts | 46° |
| 2026-04-26 21:11 | 49.76698 | 18.22518 | 5026 ft | 258 kts | 45° |
| 2026-04-26 21:11 | 49.77924 | 18.24515 | 6011 ft | 262 kts | 45° |
| 2026-04-26 21:11 | 49.79189 | 18.26577 | 6995 ft | 266 kts | 44° |
| 2026-04-26 21:12 | 49.80525 | 18.28650 | 8010 ft | 270 kts | 35° |
| 2026-04-26 21:12 | 49.82174 | 18.29928 | 9032 ft | 271 kts | 19° |
| 2026-04-26 21:12 | 49.83796 | 18.31461 | 10039 ft | 280 kts | 40° |
| 2026-04-26 21:12 | 49.84277 | 18.32237 | 10413 ft | 283 kts | 45° |
| 2026-04-26 21:13 | 49.85021 | 18.33671 | 10780 ft | 286 kts | 48° |
| 2026-04-26 21:13 | 49.86192 | 18.36142 | 10850 ft | 281 kts | 49° |
| 2026-04-26 21:13 | 49.87307 | 18.38589 | 10965 ft | 275 kts | 49° |
| 2026-04-26 21:14 | 49.88401 | 18.41000 | 11088 ft | 274 kts | 49° |
| 2026-04-26 21:14 | 49.89507 | 18.43421 | 11221 ft | 276 kts | 49° |
| 2026-04-26 21:14 | 49.90623 | 18.45852 | 11280 ft | 277 kts | 48° |
| 2026-04-26 21:14 | 49.91739 | 18.48278 | 11276 ft | 276 kts | 48° |
| 2026-04-26 21:15 | 49.92850 | 18.50691 | 11286 ft | 274 kts | 48° |
| 2026-04-26 21:15 | 49.93362 | 18.51800 | 11287 ft | 274 kts | 48° |
| 2026-04-26 21:15 | 49.93495 | 18.52089 | 11287 ft | 274 kts | 48° |
| 2026-04-26 21:15 | 49.94458 | 18.54173 | 11282 ft | 274 kts | 48° |
| 2026-04-26 21:16 | 49.94804 | 18.54922 | 11284 ft | 274 kts | 48° |
| 2026-04-26 21:16 | 49.95913 | 18.57321 | 11293 ft | 274 kts | 47° |
| 2026-04-26 21:16 | 49.97023 | 18.59720 | 11290 ft | 274 kts | 48° |
| 2026-04-26 21:16 | 49.98135 | 18.62124 | 11286 ft | 274 kts | 48° |
| 2026-04-26 21:17 | 49.99245 | 18.64529 | 11289 ft | 274 kts | 48° |
| 2026-04-26 21:17 | 50.00355 | 18.66939 | 11280 ft | 274 kts | 48° |
| 2026-04-26 21:17 | 50.01465 | 18.69343 | 11278 ft | 274 kts | 47° |
| 2026-04-26 21:17 | 50.01705 | 18.69864 | 11277 ft | 274 kts | 47° |
| 2026-04-26 21:18 | 50.02393 | 18.71355 | 11276 ft | 275 kts | 47° |
| 2026-04-26 21:18 | 50.03503 | 18.73765 | 11277 ft | 274 kts | 47° |
| 2026-04-26 21:18 | 50.04149 | 18.75167 | 11279 ft | 274 kts | 47° |
| 2026-04-26 21:18 | 50.04942 | 18.76894 | 11280 ft | 274 kts | 47° |
| 2026-04-26 21:19 | 50.06051 | 18.79306 | 11280 ft | 274 kts | 47° |
| 2026-04-26 21:19 | 50.07160 | 18.81717 | 11287 ft | 274 kts | 47° |
| 2026-04-26 21:19 | 50.08267 | 18.84129 | 11290 ft | 274 kts | 47° |
| 2026-04-26 21:19 | 50.09373 | 18.86542 | 11294 ft | 274 kts | 47° |
| 2026-04-26 21:20 | 50.10481 | 18.88960 | 11296 ft | 274 kts | 47° |
| 2026-04-26 21:20 | 50.11586 | 18.91378 | 11293 ft | 274 kts | 47° |
| 2026-04-26 21:20 | 50.12368 | 18.93089 | 11294 ft | 274 kts | 47° |
| 2026-04-26 21:20 | 50.12603 | 18.93604 | 11295 ft | 274 kts | 47° |
| 2026-04-26 21:21 | 50.13717 | 18.96041 | 11297 ft | 274 kts | 47° |
| 2026-04-26 21:21 | 50.13882 | 18.96402 | 11297 ft | 274 kts | 47° |
| 2026-04-26 21:21 | 50.14932 | 18.98701 | 11296 ft | 274 kts | 47° |
| 2026-04-26 21:21 | 50.15116 | 18.99104 | 11295 ft | 274 kts | 47° |
| 2026-04-26 21:22 | 50.16052 | 19.01159 | 11291 ft | 273 kts | 47° |
| 2026-04-26 21:22 | 50.17150 | 19.03571 | 11293 ft | 273 kts | 47° |
| 2026-04-26 21:23 | 50.18535 | 19.06614 | 11295 ft | 273 kts | 47° |
| 2026-04-26 21:23 | 50.19633 | 19.09028 | 11294 ft | 273 kts | 47° |
| 2026-04-26 21:23 | 50.20729 | 19.11444 | 11277 ft | 273 kts | 47° |
| 2026-04-26 21:23 | 50.21836 | 19.13881 | 11068 ft | 276 kts | 47° |
| 2026-04-26 21:24 | 50.22952 | 19.16343 | 10767 ft | 279 kts | 48° |
| 2026-04-26 21:24 | 50.24067 | 19.18807 | 10452 ft | 276 kts | 48° |
| 2026-04-26 21:24 | 50.25173 | 19.21252 | 10106 ft | 276 kts | 49° |
| 2026-04-26 21:24 | 50.26266 | 19.23668 | 9751 ft | 275 kts | 49° |
| 2026-04-26 21:25 | 50.27384 | 19.26144 | 9381 ft | 274 kts | 50° |
| 2026-04-26 21:25 | 50.28463 | 19.28538 | 9056 ft | 272 kts | 51° |
| 2026-04-26 21:25 | 50.29552 | 19.30957 | 8719 ft | 271 kts | 51° |
| 2026-04-26 21:25 | 50.30632 | 19.33356 | 8394 ft | 270 kts | 51° |
| 2026-04-26 21:26 | 50.31734 | 19.35804 | 7857 ft | 275 kts | 51° |
| 2026-04-26 21:26 | 50.32840 | 19.38265 | 7455 ft | 275 kts | 51° |
| 2026-04-26 21:26 | 50.33936 | 19.40702 | 7113 ft | 273 kts | 52° |
| 2026-04-26 21:26 | 50.35023 | 19.43127 | 6768 ft | 271 kts | 52° |
| 2026-04-26 21:27 | 50.36100 | 19.45529 | 6477 ft | 267 kts | 52° |
| 2026-04-26 21:27 | 50.37144 | 19.47863 | 6364 ft | 256 kts | 51° |
| 2026-04-26 21:27 | 50.38233 | 19.49986 | 6231 ft | 243 kts | 36° |
| 2026-04-26 21:27 | 50.39718 | 19.51039 | 5990 ft | 232 kts | 9° |
| 2026-04-26 21:28 | 50.41306 | 19.51284 | 5732 ft | 229 kts | 359° |
| 2026-04-26 21:28 | 50.42892 | 19.51292 | 5465 ft | 228 kts | 358° |
| 2026-04-26 21:28 | 50.44471 | 19.51287 | 5194 ft | 226 kts | 358° |
| 2026-04-26 21:28 | 50.45966 | 19.50799 | 5048 ft | 218 kts | 330° |
| 2026-04-26 21:29 | 50.47012 | 19.49188 | 4879 ft | 216 kts | 301° |
| 2026-04-26 21:29 | 50.47450 | 19.46928 | 4699 ft | 215 kts | 279° |
| 2026-04-26 21:29 | 50.47548 | 19.44608 | 4511 ft | 212 kts | 275° |
| 2026-04-26 21:29 | 50.47579 | 19.42308 | 4317 ft | 210 kts | 273° |
| 2026-04-26 21:30 | 50.47582 | 19.40065 | 4153 ft | 201 kts | 273° |
| 2026-04-26 21:30 | 50.47581 | 19.37943 | 3959 ft | 194 kts | 273° |
| 2026-04-26 21:30 | 50.47579 | 19.35870 | 3779 ft | 187 kts | 273° |
| 2026-04-26 21:30 | 50.47577 | 19.33866 | 3610 ft | 181 kts | 273° |
| 2026-04-26 21:31 | 50.47576 | 19.31922 | 3451 ft | 175 kts | 273° |
| 2026-04-26 21:31 | 50.47577 | 19.30037 | 3293 ft | 171 kts | 273° |
| 2026-04-26 21:31 | 50.47578 | 19.28173 | 3154 ft | 171 kts | 273° |
| 2026-04-26 21:31 | 50.47578 | 19.26305 | 3035 ft | 173 kts | 273° |
| 2026-04-26 21:32 | 50.47580 | 19.24407 | 2819 ft | 174 kts | 273° |
| 2026-04-26 21:32 | 50.47579 | 19.22528 | 2583 ft | 168 kts | 272° |
| 2026-04-26 21:32 | 50.47581 | 19.20745 | 2367 ft | 158 kts | 271° |
| 2026-04-26 21:32 | 50.47583 | 19.19081 | 2167 ft | 147 kts | 270° |
| 2026-04-26 21:33 | 50.47584 | 19.17561 | 1967 ft | 133 kts | 270° |
| 2026-04-26 21:33 | 50.47585 | 19.17070 | 1906 ft | 133 kts | 271° |